Airfield :
LOGIN :

Register | Disclaimer

   EN    FR    IT 

 










Legend :    VFR   Marginal VFR   IFR   Intensive IFR   Very Intensive IFR
Visi :
Ceiling :
>= 8 km
>= 3000ft
5 to 8 km
1000 to 3000 ft
1500m to 5 km
500 to 1000 ft
800 to 1500m
200 to 500 ft
< 800m
< 200 ft
Symbols :   Thunderstorms  Fog  Heavy snow  Heavy precipitations  Wind > 20 kt
SIGMETs :     Misc.  Thunderstorms  Icing  Turbulence  Mountain Waves  Volcanic Ashes







- Airport Elevation : 48 ft
- IATA code : PSR


LIBP - Abruzzo Pescara

CURRENT METAR :
  • 180750Z 20006KT 9999 BKN040 09/07 Q1018

EXPIRED METARs :
  • 180650Z 20003KT 160V240 9000 -RA BKN035 08/07 Q1018 RERA
  • 180550Z AUTO 21004KT 7000 -RA OVC031/// 08/08 Q1018 RERA

TAF COR TAF LIBP
Valid from the 18 at 06:00 until the 19 at 06:00 UTC


180637Z 1806/1906 VRB05KT 9999 SCT030
BECMG 1806/1808 32010KT
TEMPO 1806/1812 RA
No reported NOTAMs for that airfield.
1 SIGMET reported for the Brindisi FIR (LIBB) :
 
Embedded thunderstorms
LIBB SIGMET 2 VALID 180600/180900 LIIB
LIBB BRINDISI FIR EMBD TS FCST S OF LINE N4144 E01357 - N4223 E01634 TOP FL400 STNR NC=



MET'MAP, your aeronautical weather chart ! - Copyright ORBIFLY December 2007 - Disclaimer

ORBIFLY MET'MAP TEAM :

Programming & Development : Alexandra Zaïnal
Concept & Development : Baudouin d'Aumeries
Co-Development & Prog : Marc-Olivier Méhu
Technical & hardware support : Manuel Goepfert

Contact : metmap@orbifly.com




SOURCES & CREDITS :

   NOAA